GEC8003 SAEZ-SBKP
Flight info
| Callsign | GEC8003 |
|---|---|
| Flight time | 2h 7m |
| Altitude | 41000 |
| Route | OSUD3A ASETA UZ152 UKLEN UN741 PAPIX PAPI7B |
| Aircraft | MD11/H-SDE1E2E3FGHIJ2J3J4J5M1RWXY/LB1D1 |
Departure
| Time | 2026-04-30 09:21 |
|---|---|
| Airport | Ezeiza International Airport - Ministro Pistarini (SAEZ) |
Arrival
| Time | 2026-04-30 11:28 |
|---|---|
| Airport | Viracopos International Airport (SBKP) |
| Time | Latitude | Longitude | Altitude | Speed | Heading |
|---|---|---|---|---|---|
| 2026-04-30 09:01 | -34.80793 | -58.53782 | 75 ft | 0 kts | 250° |
| 2026-04-30 09:05 | -34.80789 | -58.53772 | 75 ft | 4 kts | 253° |
| 2026-04-30 09:05 | -34.80783 | -58.53751 | 64 ft | 2 kts | 219° |
| 2026-04-30 09:05 | -34.80766 | -58.53733 | 64 ft | 4 kts | 223° |
| 2026-04-30 09:05 | -34.80746 | -58.53711 | 64 ft | 4 kts | 214° |
| 2026-04-30 09:06 | -34.80731 | -58.53700 | 64 ft | 0 kts | 198° |
| 2026-04-30 09:09 | -34.80736 | -58.53702 | 75 ft | 2 kts | 198° |
| 2026-04-30 09:10 | -34.80738 | -58.53703 | 75 ft | 3 kts | 198° |
| 2026-04-30 09:10 | -34.80741 | -58.53704 | 75 ft | 0 kts | 198° |
| 2026-04-30 09:11 | -34.80778 | -58.53697 | 67 ft | 7 kts | 150° |
| 2026-04-30 09:11 | -34.80822 | -58.53663 | 67 ft | 7 kts | 150° |
| 2026-04-30 09:11 | -34.80869 | -58.53637 | 68 ft | 8 kts | 160° |
| 2026-04-30 09:11 | -34.80935 | -58.53617 | 70 ft | 13 kts | 165° |
| 2026-04-30 09:12 | -34.81023 | -58.53583 | 66 ft | 13 kts | 162° |
| 2026-04-30 09:12 | -34.81081 | -58.53563 | 67 ft | 4 kts | 165° |
| 2026-04-30 09:12 | -34.81111 | -58.53552 | 70 ft | 6 kts | 164° |
| 2026-04-30 09:12 | -34.81170 | -58.53565 | 72 ft | 12 kts | 201° |
| 2026-04-30 09:13 | -34.81267 | -58.53589 | 67 ft | 17 kts | 184° |
| 2026-04-30 09:13 | -34.81402 | -58.53604 | 69 ft | 22 kts | 193° |
| 2026-04-30 09:13 | -34.81550 | -58.53680 | 72 ft | 24 kts | 211° |
| 2026-04-30 09:13 | -34.81679 | -58.53754 | 72 ft | 20 kts | 174° |
| 2026-04-30 09:14 | -34.81808 | -58.53697 | 68 ft | 21 kts | 155° |
| 2026-04-30 09:14 | -34.81943 | -58.53687 | 70 ft | 20 kts | 213° |
| 2026-04-30 09:14 | -34.82046 | -58.53813 | 69 ft | 20 kts | 226° |
| 2026-04-30 09:14 | -34.82117 | -58.53903 | 68 ft | 13 kts | 232° |
| 2026-04-30 09:15 | -34.82136 | -58.54022 | 76 ft | 19 kts | 278° |
| 2026-04-30 09:15 | -34.82101 | -58.54225 | 80 ft | 26 kts | 282° |
| 2026-04-30 09:15 | -34.82065 | -58.54437 | 73 ft | 23 kts | 282° |
| 2026-04-30 09:15 | -34.82021 | -58.54543 | 69 ft | 6 kts | 332° |
| 2026-04-30 09:16 | -34.82003 | -58.54537 | 71 ft | 3 kts | 26° |
| 2026-04-30 09:16 | -34.81990 | -58.54529 | 72 ft | 5 kts | 27° |
| 2026-04-30 09:16 | -34.81915 | -58.54475 | 74 ft | 20 kts | 32° |
| 2026-04-30 09:16 | -34.81801 | -58.54386 | 71 ft | 12 kts | 22° |
| 2026-04-30 09:17 | -34.81765 | -58.54390 | 72 ft | 3 kts | 329° |
| 2026-04-30 09:17 | -34.81742 | -58.54444 | 78 ft | 10 kts | 281° |
| 2026-04-30 09:17 | -34.81751 | -58.54547 | 68 ft | 15 kts | 262° |
| 2026-04-30 09:17 | -34.81776 | -58.54692 | 72 ft | 20 kts | 255° |
| 2026-04-30 09:18 | -34.81762 | -58.54856 | 69 ft | 21 kts | 280° |
| 2026-04-30 09:18 | -34.81730 | -58.55038 | 75 ft | 23 kts | 282° |
| 2026-04-30 09:18 | -34.81705 | -58.55168 | 69 ft | 10 kts | 283° |
| 2026-04-30 09:18 | -34.81694 | -58.55252 | 71 ft | 10 kts | 269° |
| 2026-04-30 09:19 | -34.81719 | -58.55320 | 67 ft | 8 kts | 230° |
| 2026-04-30 09:19 | -34.81746 | -58.55341 | 72 ft | 0 kts | 204° |
| 2026-04-30 09:19 | -34.81749 | -58.55342 | 73 ft | 3 kts | 201° |
| 2026-04-30 09:20 | -34.81797 | -58.55344 | 69 ft | 11 kts | 173° |
| 2026-04-30 09:20 | -34.81897 | -58.55286 | 72 ft | 20 kts | 135° |
| 2026-04-30 09:20 | -34.81998 | -58.54882 | 69 ft | 101 kts | 101° |
| 2026-04-30 09:20 | -34.82206 | -58.53649 | 263 ft | 180 kts | 102° |
| 2026-04-30 09:21 | -34.82569 | -58.52065 | 1146 ft | 208 kts | 111° |
| 2026-04-30 09:21 | -34.83311 | -58.50420 | 2077 ft | 234 kts | 121° |
| 2026-04-30 09:21 | -34.84209 | -58.48665 | 3146 ft | 237 kts | 118° |
| 2026-04-30 09:21 | -34.85046 | -58.46985 | 4633 ft | 244 kts | 126° |
| 2026-04-30 09:22 | -34.86083 | -58.45135 | 5182 ft | 275 kts | 125° |
| 2026-04-30 09:22 | -34.87134 | -58.43145 | 6327 ft | 282 kts | 125° |
| 2026-04-30 09:22 | -34.88177 | -58.41094 | 7413 ft | 287 kts | 124° |
| 2026-04-30 09:22 | -34.89216 | -58.38995 | 8514 ft | 292 kts | 125° |
| 2026-04-30 09:23 | -34.90245 | -58.36847 | 9570 ft | 298 kts | 121° |
| 2026-04-30 09:23 | -34.90976 | -58.34421 | 10361 ft | 317 kts | 110° |
| 2026-04-30 09:23 | -34.91513 | -58.31647 | 10511 ft | 356 kts | 105° |
| 2026-04-30 09:23 | -34.91990 | -58.28549 | 10870 ft | 382 kts | 103° |
| 2026-04-30 09:24 | -34.92443 | -58.25323 | 11779 ft | 390 kts | 103° |
| 2026-04-30 09:24 | -34.92903 | -58.22031 | 12671 ft | 398 kts | 103° |
| 2026-04-30 09:24 | -34.93380 | -58.18668 | 13546 ft | 406 kts | 103° |
| 2026-04-30 09:24 | -34.93874 | -58.15241 | 14309 ft | 414 kts | 104° |
| 2026-04-30 09:25 | -34.94382 | -58.11749 | 15042 ft | 422 kts | 103° |
| 2026-04-30 09:25 | -34.94764 | -58.08211 | 15705 ft | 432 kts | 96° |
| 2026-04-30 09:25 | -34.94578 | -58.04521 | 16392 ft | 442 kts | 79° |
| 2026-04-30 09:25 | -34.93505 | -58.00997 | 17082 ft | 448 kts | 58° |
| 2026-04-30 09:26 | -34.91582 | -57.98023 | 17750 ft | 447 kts | 38° |
| 2026-04-30 09:26 | -34.89032 | -57.95921 | 18411 ft | 441 kts | 18° |
| 2026-04-30 09:26 | -34.86137 | -57.94882 | 18988 ft | 429 kts | 359° |
| 2026-04-30 09:26 | -34.83216 | -57.94971 | 19576 ft | 414 kts | 341° |
| 2026-04-30 09:27 | -34.80469 | -57.95910 | 20142 ft | 408 kts | 332° |
| 2026-04-30 09:27 | -34.77819 | -57.97160 | 20717 ft | 410 kts | 329° |
| 2026-04-30 09:27 | -34.75162 | -57.98467 | 21334 ft | 413 kts | 329° |
| 2026-04-30 09:27 | -34.72470 | -57.99740 | 21964 ft | 418 kts | 330° |
| 2026-04-30 09:28 | -34.69725 | -58.00969 | 22603 ft | 423 kts | 331° |
| 2026-04-30 09:28 | -34.66930 | -58.02165 | 23252 ft | 428 kts | 332° |
| 2026-04-30 09:28 | -34.64098 | -58.03343 | 23860 ft | 432 kts | 332° |
| 2026-04-30 09:28 | -34.61238 | -58.04511 | 24449 ft | 435 kts | 332° |
| 2026-04-30 09:29 | -34.58356 | -58.05680 | 24999 ft | 438 kts | 332° |
| 2026-04-30 09:29 | -34.55454 | -58.06854 | 25623 ft | 441 kts | 332° |
| 2026-04-30 09:29 | -34.52535 | -58.08035 | 26235 ft | 444 kts | 332° |
| 2026-04-30 09:29 | -34.49590 | -58.09226 | 26846 ft | 447 kts | 332° |
| 2026-04-30 09:30 | -34.46635 | -58.10422 | 27447 ft | 450 kts | 332° |
| 2026-04-30 09:30 | -34.43657 | -58.11627 | 28042 ft | 453 kts | 332° |
| 2026-04-30 09:30 | -34.40659 | -58.12840 | 28628 ft | 456 kts | 332° |
| 2026-04-30 09:30 | -34.37639 | -58.14060 | 29197 ft | 459 kts | 332° |
| 2026-04-30 09:31 | -34.34601 | -58.15287 | 29776 ft | 462 kts | 332° |
| 2026-04-30 09:31 | -34.31543 | -58.16521 | 30274 ft | 465 kts | 332° |
| 2026-04-30 09:31 | -34.28446 | -58.17709 | 30705 ft | 470 kts | 335° |
| 2026-04-30 09:31 | -34.25225 | -58.18606 | 31163 ft | 480 kts | 341° |
| 2026-04-30 09:32 | -34.21865 | -58.18969 | 31715 ft | 490 kts | 350° |
| 2026-04-30 09:32 | -34.18434 | -58.18685 | 32247 ft | 500 kts | 0° |
| 2026-04-30 09:32 | -34.15011 | -58.17724 | 32797 ft | 510 kts | 9° |
| 2026-04-30 09:32 | -34.11696 | -58.16101 | 33320 ft | 520 kts | 19° |
| 2026-04-30 09:33 | -34.08553 | -58.13864 | 33820 ft | 528 kts | 26° |
| 2026-04-30 09:33 | -34.05568 | -58.11268 | 34258 ft | 531 kts | 30° |
| 2026-04-30 09:33 | -34.02650 | -58.08532 | 34651 ft | 531 kts | 31° |
| 2026-04-30 09:33 | -33.99747 | -58.05787 | 35034 ft | 530 kts | 30° |
| 2026-04-30 09:34 | -33.96871 | -58.03118 | 35400 ft | 528 kts | 30° |
| 2026-04-30 09:34 | -33.93903 | -58.00431 | 35784 ft | 526 kts | 29° |
| 2026-04-30 09:34 | -33.90969 | -57.97823 | 36119 ft | 523 kts | 28° |
| 2026-04-30 09:34 | -33.88072 | -57.95277 | 36490 ft | 521 kts | 28° |
| 2026-04-30 09:35 | -33.85148 | -57.92721 | 36871 ft | 520 kts | 28° |
| 2026-04-30 09:35 | -33.82215 | -57.90163 | 37011 ft | 521 kts | 28° |
| 2026-04-30 09:35 | -33.76340 | -57.85040 | 37041 ft | 522 kts | 28° |
| 2026-04-30 09:36 | -33.70466 | -57.79912 | 37042 ft | 522 kts | 28° |
| 2026-04-30 09:36 | -33.64591 | -57.74790 | 37043 ft | 522 kts | 28° |
| 2026-04-30 09:37 | -33.58719 | -57.69709 | 37039 ft | 520 kts | 28° |
| 2026-04-30 09:37 | -33.52858 | -57.64649 | 37040 ft | 519 kts | 28° |
| 2026-04-30 09:38 | -33.46990 | -57.59586 | 37044 ft | 520 kts | 28° |
| 2026-04-30 09:38 | -33.41122 | -57.54526 | 37046 ft | 520 kts | 28° |
| 2026-04-30 09:39 | -33.35252 | -57.49473 | 37047 ft | 520 kts | 28° |
| 2026-04-30 09:39 | -33.30379 | -57.45284 | 37039 ft | 518 kts | 28° |
| 2026-04-30 09:40 | -33.24525 | -57.40261 | 37042 ft | 518 kts | 28° |
| 2026-04-30 09:40 | -33.18671 | -57.35248 | 37046 ft | 518 kts | 28° |
| 2026-04-30 09:41 | -33.12809 | -57.30236 | 37047 ft | 518 kts | 28° |
| 2026-04-30 09:41 | -33.06945 | -57.25229 | 37051 ft | 518 kts | 28° |
| 2026-04-30 09:42 | -33.01083 | -57.20233 | 37038 ft | 517 kts | 28° |
| 2026-04-30 09:42 | -32.95231 | -57.15259 | 37050 ft | 516 kts | 28° |
| 2026-04-30 09:43 | -32.89370 | -57.10305 | 37047 ft | 516 kts | 28° |
| 2026-04-30 09:43 | -32.83516 | -57.05351 | 37056 ft | 517 kts | 28° |
| 2026-04-30 09:44 | -32.77660 | -57.00395 | 37056 ft | 517 kts | 28° |
| 2026-04-30 09:44 | -32.71801 | -56.95441 | 37035 ft | 516 kts | 28° |
| 2026-04-30 09:45 | -32.65956 | -56.90507 | 37058 ft | 515 kts | 28° |
| 2026-04-30 09:45 | -32.60119 | -56.85590 | 37061 ft | 515 kts | 28° |
| 2026-04-30 09:46 | -32.54309 | -56.80707 | 37060 ft | 515 kts | 28° |
| 2026-04-30 09:46 | -32.48460 | -56.75811 | 37064 ft | 515 kts | 28° |
| 2026-04-30 09:47 | -32.42601 | -56.70909 | 37049 ft | 515 kts | 28° |
| 2026-04-30 09:47 | -32.36767 | -56.66028 | 37065 ft | 514 kts | 28° |
| 2026-04-30 09:48 | -32.30929 | -56.61152 | 37074 ft | 513 kts | 28° |
| 2026-04-30 09:48 | -32.25096 | -56.56288 | 37064 ft | 513 kts | 28° |
| 2026-04-30 09:49 | -32.19262 | -56.51430 | 37074 ft | 513 kts | 28° |
| 2026-04-30 09:49 | -32.13424 | -56.46582 | 37074 ft | 513 kts | 28° |
| 2026-04-30 09:50 | -32.07593 | -56.41752 | 37077 ft | 511 kts | 28° |
| 2026-04-30 09:50 | -32.01772 | -56.36932 | 37080 ft | 511 kts | 28° |
| 2026-04-30 09:51 | -31.95954 | -56.32118 | 37078 ft | 511 kts | 28° |
| 2026-04-30 09:51 | -31.90132 | -56.27307 | 37080 ft | 512 kts | 28° |
| 2026-04-30 09:52 | -31.84304 | -56.22499 | 37080 ft | 512 kts | 28° |
| 2026-04-30 09:52 | -31.78474 | -56.17696 | 37078 ft | 511 kts | 28° |
| 2026-04-30 09:53 | -31.72657 | -56.12912 | 37084 ft | 510 kts | 28° |
| 2026-04-30 09:53 | -31.66840 | -56.08136 | 37084 ft | 510 kts | 28° |
| 2026-04-30 09:54 | -31.61019 | -56.03364 | 37088 ft | 510 kts | 28° |
| 2026-04-30 09:54 | -31.55237 | -55.98633 | 37089 ft | 510 kts | 28° |
| 2026-04-30 09:55 | -31.49425 | -55.93875 | 37086 ft | 510 kts | 28° |
| 2026-04-30 09:55 | -31.43611 | -55.89110 | 37088 ft | 510 kts | 28° |
| 2026-04-30 09:56 | -31.37798 | -55.84348 | 37097 ft | 510 kts | 28° |
| 2026-04-30 09:56 | -31.31989 | -55.79596 | 37094 ft | 510 kts | 28° |
| 2026-04-30 09:57 | -31.26177 | -55.74850 | 37092 ft | 510 kts | 28° |
| 2026-04-30 09:57 | -31.20361 | -55.70109 | 37073 ft | 509 kts | 28° |
| 2026-04-30 09:58 | -31.14556 | -55.65382 | 37085 ft | 508 kts | 28° |
| 2026-04-30 09:58 | -31.08758 | -55.60670 | 37080 ft | 508 kts | 28° |
| 2026-04-30 09:59 | -30.97161 | -55.51266 | 37074 ft | 508 kts | 28° |
| 2026-04-30 10:00 | -30.89017 | -55.43190 | 37077 ft | 520 kts | 41° |
| 2026-04-30 10:01 | -30.81758 | -55.33777 | 37085 ft | 520 kts | 42° |
| 2026-04-30 10:02 | -30.74461 | -55.24516 | 37099 ft | 520 kts | 41° |
| 2026-04-30 10:02 | -30.69532 | -55.18366 | 37101 ft | 520 kts | 41° |
| 2026-04-30 10:03 | -30.64601 | -55.12225 | 37102 ft | 520 kts | 41° |
| 2026-04-30 10:03 | -30.59666 | -55.06081 | 37102 ft | 520 kts | 41° |
| 2026-04-30 10:04 | -30.54730 | -54.99944 | 37093 ft | 520 kts | 41° |
| 2026-04-30 10:04 | -30.49780 | -54.93824 | 37094 ft | 520 kts | 41° |
| 2026-04-30 10:05 | -30.44824 | -54.87731 | 37096 ft | 519 kts | 41° |
| 2026-04-30 10:05 | -30.39868 | -54.81638 | 37102 ft | 519 kts | 41° |
| 2026-04-30 10:06 | -30.34914 | -54.75548 | 37100 ft | 519 kts | 41° |
| 2026-04-30 10:06 | -30.29959 | -54.69467 | 37098 ft | 520 kts | 41° |
| 2026-04-30 10:07 | -30.24998 | -54.63387 | 37100 ft | 520 kts | 41° |
| 2026-04-30 10:07 | -30.20033 | -54.57313 | 37099 ft | 520 kts | 41° |
| 2026-04-30 10:08 | -30.15061 | -54.51239 | 37105 ft | 520 kts | 41° |
| 2026-04-30 10:08 | -30.10099 | -54.45187 | 37102 ft | 519 kts | 41° |
| 2026-04-30 10:09 | -30.05127 | -54.39133 | 37101 ft | 519 kts | 41° |
| 2026-04-30 10:09 | -30.00162 | -54.33096 | 37101 ft | 519 kts | 41° |
| 2026-04-30 10:10 | -29.95220 | -54.27102 | 37104 ft | 519 kts | 40° |
| 2026-04-30 10:10 | -29.90233 | -54.21087 | 37105 ft | 519 kts | 40° |
| 2026-04-30 10:11 | -29.85245 | -54.15067 | 37104 ft | 519 kts | 40° |
| 2026-04-30 10:11 | -29.80256 | -54.09042 | 37107 ft | 520 kts | 40° |
| 2026-04-30 10:12 | -29.75268 | -54.03022 | 37095 ft | 519 kts | 40° |
| 2026-04-30 10:12 | -29.70282 | -53.97016 | 37087 ft | 519 kts | 40° |
| 2026-04-30 10:13 | -29.65287 | -53.91009 | 37089 ft | 520 kts | 40° |
| 2026-04-30 10:13 | -29.60290 | -53.85008 | 37088 ft | 520 kts | 40° |
| 2026-04-30 10:14 | -29.55291 | -53.79015 | 37087 ft | 520 kts | 40° |
| 2026-04-30 10:14 | -29.47787 | -53.70036 | 37114 ft | 520 kts | 40° |
| 2026-04-30 10:15 | -29.42809 | -53.64090 | 37115 ft | 520 kts | 40° |
| 2026-04-30 10:15 | -29.37797 | -53.58115 | 37107 ft | 520 kts | 40° |
| 2026-04-30 10:16 | -29.32763 | -53.52149 | 37116 ft | 520 kts | 40° |
| 2026-04-30 10:17 | -29.25225 | -53.43210 | 37124 ft | 520 kts | 40° |
| 2026-04-30 10:17 | -29.17687 | -53.34270 | 37119 ft | 520 kts | 40° |
| 2026-04-30 10:18 | -29.12662 | -53.28322 | 37125 ft | 520 kts | 40° |
| 2026-04-30 10:19 | -29.05112 | -53.19403 | 37127 ft | 520 kts | 40° |
| 2026-04-30 10:19 | -29.00070 | -53.13458 | 37134 ft | 521 kts | 39° |
| 2026-04-30 10:20 | -28.95022 | -53.07515 | 37135 ft | 521 kts | 39° |
| 2026-04-30 10:20 | -28.87444 | -52.98610 | 37137 ft | 522 kts | 39° |
| 2026-04-30 10:21 | -28.82416 | -52.92713 | 37141 ft | 522 kts | 39° |
| 2026-04-30 10:21 | -28.77342 | -52.86785 | 37140 ft | 522 kts | 39° |
| 2026-04-30 10:22 | -28.72266 | -52.80873 | 37143 ft | 522 kts | 39° |
| 2026-04-30 10:22 | -28.67194 | -52.74959 | 37141 ft | 522 kts | 39° |
| 2026-04-30 10:23 | -28.62114 | -52.69035 | 37142 ft | 523 kts | 39° |
| 2026-04-30 10:23 | -28.57027 | -52.63111 | 37149 ft | 523 kts | 39° |
| 2026-04-30 10:24 | -28.51935 | -52.57191 | 37146 ft | 523 kts | 39° |
| 2026-04-30 10:24 | -28.46837 | -52.51273 | 37140 ft | 524 kts | 39° |
| 2026-04-30 10:25 | -28.41732 | -52.45357 | 37134 ft | 524 kts | 39° |
| 2026-04-30 10:25 | -28.36623 | -52.39454 | 37133 ft | 524 kts | 39° |
| 2026-04-30 10:26 | -28.31504 | -52.33553 | 37132 ft | 524 kts | 39° |
| 2026-04-30 10:26 | -28.26389 | -52.27657 | 37108 ft | 525 kts | 38° |
| 2026-04-30 10:27 | -28.21255 | -52.21746 | 37131 ft | 526 kts | 38° |
| 2026-04-30 10:27 | -28.16111 | -52.15828 | 37132 ft | 526 kts | 38° |
| 2026-04-30 10:28 | -28.11004 | -52.09960 | 37133 ft | 526 kts | 38° |
| 2026-04-30 10:28 | -28.05856 | -52.04053 | 37139 ft | 527 kts | 38° |
| 2026-04-30 10:29 | -28.00706 | -51.98154 | 37146 ft | 527 kts | 38° |
| 2026-04-30 10:29 | -27.95548 | -51.92254 | 37139 ft | 527 kts | 38° |
| 2026-04-30 10:30 | -27.91261 | -51.87356 | 37135 ft | 527 kts | 38° |
| 2026-04-30 10:30 | -27.86103 | -51.81471 | 37139 ft | 527 kts | 38° |
| 2026-04-30 10:31 | -27.80941 | -51.75591 | 37144 ft | 528 kts | 38° |
| 2026-04-30 10:31 | -27.75734 | -51.69667 | 37143 ft | 528 kts | 38° |
| 2026-04-30 10:32 | -27.70595 | -51.63832 | 37144 ft | 527 kts | 38° |
| 2026-04-30 10:32 | -27.65412 | -51.57976 | 37124 ft | 527 kts | 38° |
| 2026-04-30 10:33 | -27.60224 | -51.52116 | 37123 ft | 528 kts | 38° |
| 2026-04-30 10:33 | -27.55033 | -51.46246 | 37141 ft | 529 kts | 38° |
| 2026-04-30 10:34 | -27.49847 | -51.40388 | 37140 ft | 528 kts | 38° |
| 2026-04-30 10:34 | -27.44656 | -51.34533 | 37141 ft | 528 kts | 38° |
| 2026-04-30 10:35 | -27.39460 | -51.28680 | 37139 ft | 529 kts | 38° |
| 2026-04-30 10:35 | -27.34260 | -51.22833 | 37141 ft | 529 kts | 38° |
| 2026-04-30 10:36 | -27.29048 | -51.17000 | 37139 ft | 529 kts | 38° |
| 2026-04-30 10:36 | -27.23834 | -51.11172 | 37138 ft | 529 kts | 38° |
| 2026-04-30 10:37 | -27.18623 | -51.05346 | 37143 ft | 528 kts | 38° |
| 2026-04-30 10:37 | -27.13406 | -50.99522 | 37136 ft | 530 kts | 37° |
| 2026-04-30 10:38 | -27.08167 | -50.93682 | 37140 ft | 531 kts | 37° |
| 2026-04-30 10:38 | -27.02922 | -50.87840 | 37153 ft | 532 kts | 37° |
| 2026-04-30 10:39 | -26.97664 | -50.81994 | 37152 ft | 532 kts | 37° |
| 2026-04-30 10:39 | -26.92409 | -50.76158 | 37153 ft | 532 kts | 37° |
| 2026-04-30 10:40 | -26.87148 | -50.70325 | 37148 ft | 532 kts | 37° |
| 2026-04-30 10:40 | -26.81918 | -50.64535 | 37139 ft | 533 kts | 37° |
| 2026-04-30 10:41 | -26.76643 | -50.58699 | 37137 ft | 534 kts | 37° |
| 2026-04-30 10:41 | -26.71367 | -50.52839 | 37145 ft | 535 kts | 37° |
| 2026-04-30 10:42 | -26.66093 | -50.46960 | 37142 ft | 535 kts | 37° |
| 2026-04-30 10:42 | -26.60820 | -50.41084 | 37126 ft | 536 kts | 37° |
| 2026-04-30 10:43 | -26.55702 | -50.34985 | 37135 ft | 545 kts | 47° |
| 2026-04-30 10:43 | -26.51966 | -50.27514 | 37136 ft | 559 kts | 63° |
| 2026-04-30 10:44 | -26.49145 | -50.19407 | 37125 ft | 560 kts | 65° |
| 2026-04-30 10:44 | -26.46199 | -50.11351 | 37131 ft | 560 kts | 62° |
| 2026-04-30 10:45 | -26.43046 | -50.03402 | 37134 ft | 559 kts | 61° |
| 2026-04-30 10:45 | -26.39838 | -49.95508 | 37130 ft | 559 kts | 61° |
| 2026-04-30 10:46 | -26.36618 | -49.87697 | 37131 ft | 557 kts | 58° |
| 2026-04-30 10:46 | -26.32349 | -49.80675 | 37131 ft | 539 kts | 39° |
| 2026-04-30 10:47 | -26.29648 | -49.77846 | 37130 ft | 528 kts | 30° |
| 2026-04-30 10:47 | -26.26661 | -49.75559 | 37098 ft | 515 kts | 20° |
| 2026-04-30 10:47 | -26.23483 | -49.73847 | 37118 ft | 502 kts | 12° |
| 2026-04-30 10:47 | -26.20232 | -49.72467 | 37132 ft | 500 kts | 10° |
| 2026-04-30 10:48 | -26.13755 | -49.69550 | 37138 ft | 506 kts | 14° |
| 2026-04-30 10:48 | -26.07398 | -49.66105 | 37125 ft | 510 kts | 18° |
| 2026-04-30 10:49 | -26.01105 | -49.62427 | 37125 ft | 511 kts | 18° |
| 2026-04-30 10:49 | -25.94819 | -49.58733 | 37128 ft | 510 kts | 18° |
| 2026-04-30 10:50 | -25.88533 | -49.55072 | 37130 ft | 510 kts | 18° |
| 2026-04-30 10:50 | -25.82239 | -49.51425 | 37126 ft | 510 kts | 18° |
| 2026-04-30 10:51 | -25.75952 | -49.47788 | 37131 ft | 510 kts | 18° |
| 2026-04-30 10:51 | -25.69667 | -49.44155 | 37136 ft | 509 kts | 18° |
| 2026-04-30 10:52 | -25.63390 | -49.40531 | 37152 ft | 508 kts | 18° |
| 2026-04-30 10:52 | -25.57117 | -49.36914 | 37166 ft | 508 kts | 18° |
| 2026-04-30 10:53 | -25.50834 | -49.33312 | 37154 ft | 508 kts | 18° |
| 2026-04-30 10:53 | -25.44596 | -49.29760 | 37151 ft | 508 kts | 18° |
| 2026-04-30 10:54 | -25.38319 | -49.26185 | 37152 ft | 507 kts | 18° |
| 2026-04-30 10:54 | -25.32044 | -49.22607 | 37147 ft | 507 kts | 18° |
| 2026-04-30 10:55 | -25.25776 | -49.19034 | 37117 ft | 507 kts | 18° |
| 2026-04-30 10:55 | -25.19500 | -49.15461 | 37111 ft | 507 kts | 18° |
| 2026-04-30 10:56 | -25.13233 | -49.11893 | 37117 ft | 507 kts | 18° |
| 2026-04-30 10:56 | -25.06972 | -49.08325 | 37078 ft | 506 kts | 20° |
| 2026-04-30 10:57 | -25.00715 | -49.04761 | 37109 ft | 506 kts | 19° |
| 2026-04-30 10:57 | -24.94461 | -49.01203 | 37110 ft | 506 kts | 19° |
| 2026-04-30 10:58 | -24.88205 | -48.97648 | 37115 ft | 505 kts | 19° |
| 2026-04-30 10:58 | -24.82015 | -48.94133 | 37103 ft | 503 kts | 19° |
| 2026-04-30 10:59 | -24.75797 | -48.90616 | 37106 ft | 504 kts | 19° |
| 2026-04-30 10:59 | -24.69547 | -48.87082 | 37110 ft | 504 kts | 19° |
| 2026-04-30 11:00 | -24.63309 | -48.83554 | 37110 ft | 504 kts | 20° |
| 2026-04-30 11:00 | -24.57073 | -48.80031 | 37108 ft | 504 kts | 19° |
| 2026-04-30 11:01 | -24.50844 | -48.76514 | 37106 ft | 504 kts | 20° |
| 2026-04-30 11:01 | -24.44730 | -48.72672 | 37105 ft | 509 kts | 24° |
| 2026-04-30 11:02 | -24.38746 | -48.68494 | 37105 ft | 510 kts | 25° |
| 2026-04-30 11:02 | -24.32773 | -48.64294 | 37098 ft | 510 kts | 25° |
| 2026-04-30 11:03 | -24.26815 | -48.60149 | 35794 ft | 506 kts | 25° |
| 2026-04-30 11:03 | -24.23833 | -48.58090 | 34557 ft | 507 kts | 25° |
| 2026-04-30 11:04 | -24.17844 | -48.53963 | 31730 ft | 509 kts | 26° |
| 2026-04-30 11:04 | -24.14844 | -48.51897 | 30269 ft | 510 kts | 26° |
| 2026-04-30 11:04 | -24.11868 | -48.49847 | 28505 ft | 512 kts | 27° |
| 2026-04-30 11:04 | -24.08842 | -48.47764 | 26791 ft | 514 kts | 27° |
| 2026-04-30 11:05 | -24.05797 | -48.45666 | 25574 ft | 507 kts | 28° |
| 2026-04-30 11:05 | -24.02843 | -48.43628 | 24466 ft | 498 kts | 28° |
| 2026-04-30 11:05 | -23.99973 | -48.41650 | 23355 ft | 490 kts | 29° |
| 2026-04-30 11:05 | -23.97112 | -48.39681 | 22157 ft | 481 kts | 29° |
| 2026-04-30 11:06 | -23.94303 | -48.37751 | 20999 ft | 472 kts | 30° |
| 2026-04-30 11:06 | -23.91547 | -48.35858 | 19902 ft | 464 kts | 30° |
| 2026-04-30 11:06 | -23.88837 | -48.34001 | 18861 ft | 455 kts | 30° |
| 2026-04-30 11:06 | -23.86179 | -48.32179 | 17777 ft | 447 kts | 31° |
| 2026-04-30 11:07 | -23.83581 | -48.30358 | 16669 ft | 441 kts | 32° |
| 2026-04-30 11:07 | -23.81059 | -48.28499 | 15621 ft | 435 kts | 33° |
| 2026-04-30 11:07 | -23.78586 | -48.26626 | 14598 ft | 429 kts | 33° |
| 2026-04-30 11:07 | -23.76187 | -48.24790 | 12959 ft | 425 kts | 33° |
| 2026-04-30 11:08 | -23.73837 | -48.22990 | 12044 ft | 394 kts | 33° |
| 2026-04-30 11:08 | -23.71700 | -48.21353 | 11571 ft | 359 kts | 33° |
| 2026-04-30 11:08 | -23.69684 | -48.19814 | 11147 ft | 349 kts | 33° |
| 2026-04-30 11:08 | -23.67723 | -48.18323 | 10779 ft | 339 kts | 33° |
| 2026-04-30 11:09 | -23.65806 | -48.16867 | 10392 ft | 331 kts | 33° |
| 2026-04-30 11:09 | -23.64424 | -48.15819 | 10151 ft | 325 kts | 33° |
| 2026-04-30 11:09 | -23.63247 | -48.14926 | 9943 ft | 320 kts | 33° |
| 2026-04-30 11:10 | -23.61443 | -48.13557 | 9629 ft | 310 kts | 33° |
| 2026-04-30 11:10 | -23.59703 | -48.12238 | 9361 ft | 301 kts | 33° |
| 2026-04-30 11:10 | -23.58009 | -48.10954 | 9122 ft | 292 kts | 33° |
| 2026-04-30 11:10 | -23.56358 | -48.09703 | 8877 ft | 287 kts | 33° |
| 2026-04-30 11:11 | -23.54722 | -48.08464 | 8629 ft | 285 kts | 32° |
| 2026-04-30 11:11 | -23.53098 | -48.07235 | 8381 ft | 284 kts | 32° |
| 2026-04-30 11:11 | -23.51482 | -48.06012 | 8173 ft | 281 kts | 32° |
| 2026-04-30 11:11 | -23.49899 | -48.04812 | 8124 ft | 273 kts | 32° |
| 2026-04-30 11:12 | -23.48363 | -48.03649 | 8093 ft | 267 kts | 32° |
| 2026-04-30 11:12 | -23.46824 | -48.02484 | 8114 ft | 272 kts | 32° |
| 2026-04-30 11:12 | -23.45254 | -48.01297 | 8113 ft | 278 kts | 32° |
| 2026-04-30 11:12 | -23.43651 | -48.00084 | 8110 ft | 283 kts | 32° |
| 2026-04-30 11:13 | -23.42033 | -47.98861 | 8106 ft | 284 kts | 32° |
| 2026-04-30 11:13 | -23.40410 | -47.97634 | 8112 ft | 284 kts | 33° |
| 2026-04-30 11:13 | -23.38782 | -47.96404 | 8108 ft | 285 kts | 32° |
| 2026-04-30 11:13 | -23.37149 | -47.95170 | 8110 ft | 286 kts | 32° |
| 2026-04-30 11:14 | -23.35514 | -47.93936 | 8106 ft | 287 kts | 33° |
| 2026-04-30 11:14 | -23.33880 | -47.92702 | 8108 ft | 285 kts | 32° |
| 2026-04-30 11:14 | -23.32255 | -47.91474 | 8106 ft | 284 kts | 32° |
| 2026-04-30 11:14 | -23.30635 | -47.90251 | 8105 ft | 283 kts | 32° |
| 2026-04-30 11:15 | -23.29020 | -47.89032 | 8107 ft | 282 kts | 32° |
| 2026-04-30 11:15 | -23.27435 | -47.87836 | 8092 ft | 280 kts | 33° |
| 2026-04-30 11:15 | -23.25836 | -47.86630 | 8110 ft | 280 kts | 33° |
| 2026-04-30 11:15 | -23.24238 | -47.85426 | 8102 ft | 279 kts | 33° |
| 2026-04-30 11:16 | -23.22644 | -47.84225 | 8108 ft | 278 kts | 33° |
| 2026-04-30 11:16 | -23.21122 | -47.82927 | 8097 ft | 279 kts | 44° |
| 2026-04-30 11:16 | -23.19953 | -47.81253 | 8100 ft | 279 kts | 57° |
| 2026-04-30 11:16 | -23.19000 | -47.79418 | 8094 ft | 278 kts | 60° |
| 2026-04-30 11:17 | -23.18100 | -47.77562 | 8097 ft | 278 kts | 61° |
| 2026-04-30 11:17 | -23.17213 | -47.75714 | 8100 ft | 277 kts | 61° |
| 2026-04-30 11:17 | -23.16317 | -47.73856 | 8099 ft | 277 kts | 61° |
| 2026-04-30 11:17 | -23.15419 | -47.72007 | 8103 ft | 277 kts | 61° |
| 2026-04-30 11:18 | -23.14519 | -47.70158 | 8104 ft | 276 kts | 61° |
| 2026-04-30 11:18 | -23.12718 | -47.66471 | 8105 ft | 276 kts | 61° |
| 2026-04-30 11:18 | -23.12122 | -47.65251 | 8100 ft | 276 kts | 60° |
| 2026-04-30 11:19 | -23.11221 | -47.63411 | 8100 ft | 276 kts | 60° |
| 2026-04-30 11:19 | -23.10322 | -47.61577 | 8100 ft | 275 kts | 60° |
| 2026-04-30 11:19 | -23.09422 | -47.59743 | 8101 ft | 275 kts | 60° |
| 2026-04-30 11:19 | -23.08522 | -47.57909 | 8099 ft | 275 kts | 61° |
| 2026-04-30 11:20 | -23.07624 | -47.56077 | 8104 ft | 275 kts | 61° |
| 2026-04-30 11:20 | -23.06724 | -47.54245 | 8101 ft | 275 kts | 61° |
| 2026-04-30 11:20 | -23.05824 | -47.52411 | 8103 ft | 275 kts | 61° |
| 2026-04-30 11:20 | -23.04923 | -47.50578 | 8104 ft | 275 kts | 61° |
| 2026-04-30 11:21 | -23.04025 | -47.48745 | 8106 ft | 275 kts | 61° |
| 2026-04-30 11:21 | -23.03129 | -47.46915 | 8109 ft | 275 kts | 61° |
| 2026-04-30 11:21 | -23.02234 | -47.45085 | 8115 ft | 275 kts | 61° |
| 2026-04-30 11:21 | -23.01339 | -47.43256 | 8113 ft | 274 kts | 61° |
| 2026-04-30 11:22 | -23.00445 | -47.41428 | 8127 ft | 274 kts | 61° |
| 2026-04-30 11:22 | -22.99552 | -47.39603 | 8132 ft | 274 kts | 61° |
| 2026-04-30 11:22 | -22.98649 | -47.37783 | 8130 ft | 273 kts | 58° |
| 2026-04-30 11:22 | -22.97497 | -47.36139 | 7787 ft | 275 kts | 40° |
| 2026-04-30 11:23 | -22.95920 | -47.35110 | 7329 ft | 253 kts | 21° |
| 2026-04-30 11:23 | -22.94235 | -47.34468 | 6302 ft | 254 kts | 15° |
| 2026-04-30 11:23 | -22.91288 | -47.33049 | 5656 ft | 216 kts | 41° |
| 2026-04-30 11:24 | -22.90429 | -47.31832 | 5630 ft | 194 kts | 62° |
| 2026-04-30 11:24 | -22.90047 | -47.30433 | 5625 ft | 196 kts | 83° |
| 2026-04-30 11:24 | -22.90143 | -47.28983 | 5541 ft | 189 kts | 104° |
| 2026-04-30 11:25 | -22.91406 | -47.26621 | 4912 ft | 173 kts | 122° |
| 2026-04-30 11:25 | -22.92130 | -47.25487 | 4718 ft | 200 kts | 125° |
| 2026-04-30 11:25 | -22.93951 | -47.22929 | 4082 ft | 214 kts | 127° |
| 2026-04-30 11:26 | -22.95633 | -47.20592 | 3808 ft | 184 kts | 126° |
| 2026-04-30 11:26 | -22.96388 | -47.19508 | 3448 ft | 178 kts | 124° |
| 2026-04-30 11:26 | -22.97115 | -47.18403 | 3080 ft | 178 kts | 124° |
| 2026-04-30 11:27 | -22.97876 | -47.17353 | 2842 ft | 176 kts | 128° |
| 2026-04-30 11:27 | -22.98643 | -47.16352 | 2592 ft | 168 kts | 129° |
| 2026-04-30 11:27 | -22.99367 | -47.15348 | 2368 ft | 170 kts | 127° |
| 2026-04-30 11:27 | -23.00097 | -47.14339 | 2166 ft | 168 kts | 127° |
| 2026-04-30 11:28 | -23.01193 | -47.12840 | 2162 ft | 88 kts | 124° |
| 2026-04-30 11:28 | -23.01501 | -47.12383 | 2168 ft | 62 kts | 127° |
| 2026-04-30 11:28 | -23.01715 | -47.12140 | 2185 ft | 15 kts | 159° |
| 2026-04-30 11:29 | -23.01736 | -47.12141 | 2184 ft | 0 kts | 198° |
| 2026-04-30 11:30 | -23.01784 | -47.12284 | 2181 ft | 19 kts | 265° |
| 2026-04-30 11:30 | -23.01826 | -47.12393 | 2185 ft | 14 kts | 250° |
| 2026-04-30 11:30 | -23.01852 | -47.12463 | 2186 ft | 3 kts | 229° |
| 2026-04-30 11:31 | -23.01870 | -47.12477 | 2184 ft | 5 kts | 215° |